Time;durP1;ratioP1;P1;durP2;ratioP2;P2;SDS_P1;SDS_P2;PMS_P1;PMS_P2;Temp;Humidity;BMP_temperature;BMP_pressure;BME280_temperature;BME280_humidity;BME280_pressure;Samples;Min_cycle;Max_cycle;Signal;HPM_P1;HPM_P2
2023/10/31 00:00:32;;;;;;;1.40;0.70;;;;;;;14.43;67.80;95663.59;4897537;28;20289;-84
2023/10/31 00:02:58;;;;;;;0.82;0.80;;;;;;;14.42;66.85;95635.84;4897828;28;20722;-84
2023/10/31 00:05:23;;;;;;;0.60;0.60;;;;;;;14.45;66.58;95631.88;4909221;28;20284;-87
2023/10/31 00:07:49;;;;;;;1.20;0.70;;;;;;;14.49;65.68;95635.41;4897646;28;20207;-85
2023/10/31 00:10:14;;;;;;;1.20;0.60;;;;;;;14.46;66.05;95647.25;4885546;28;20209;-85
2023/10/31 00:12:40;;;;;;;0.98;0.80;;;;;;;14.44;66.82;95659.88;4903964;28;20277;-85
2023/10/31 00:15:05;;;;;;;0.80;0.75;;;;;;;14.43;66.07;95664.34;4897675;28;20181;-86
2023/10/31 00:17:31;;;;;;;1.35;0.88;;;;;;;14.22;66.53;95638.00;4915227;28;20164;-85
2023/10/31 00:19:56;;;;;;;1.33;0.90;;;;;;;14.50;66.09;95668.38;4900257;28;20155;-85
2023/10/31 00:22:22;;;;;;;0.88;0.68;;;;;;;14.37;66.32;95668.19;4889638;28;20349;-85
2023/10/31 00:24:47;;;;;;;1.25;0.80;;;;;;;14.38;66.16;95669.75;4912713;28;20167;-83
2023/10/31 00:27:14;;;;;;;0.57;0.57;;;;;;;14.17;65.95;95658.28;4887224;28;20584;-84
2023/10/31 00:29:40;;;;;;;0.80;0.80;;;;;;;14.27;65.78;95663.22;4893049;28;20194;-85
2023/10/31 00:32:05;;;;;;;2.55;0.70;;;;;;;14.18;66.07;95663.22;4905982;28;20242;-85
2023/10/31 00:34:31;;;;;;;1.88;0.80;;;;;;;14.11;66.17;95662.91;4874891;28;20614;-85
2023/10/31 00:36:56;;;;;;;1.10;1.00;;;;;;;14.15;66.65;95652.59;4915155;28;20186;-86
2023/10/31 00:39:21;;;;;;;0.85;0.85;;;;;;;14.02;66.67;95662.88;4904868;28;20736;-84
2023/10/31 00:41:47;;;;;;;1.20;1.00;;;;;;;14.14;66.59;95657.06;4915144;28;20244;-85
2023/10/31 00:44:13;;;;;;;0.65;0.65;;;;;;;14.03;66.83;95667.03;4886573;28;20324;-82
2023/10/31 00:46:38;;;;;;;0.90;0.90;;;;;;;14.13;67.16;95654.75;4888656;28;20183;-85
2023/10/31 00:49:04;;;;;;;2.35;1.00;;;;;;;14.14;67.08;95658.91;4905248;28;20202;-84
2023/10/31 00:51:29;;;;;;;1.38;0.80;;;;;;;14.30;66.78;95675.72;4885929;28;20230;-85
2023/10/31 00:53:54;;;;;;;1.17;0.80;;;;;;;13.93;67.08;95656.84;4881337;28;20172;-82
2023/10/31 00:56:20;;;;;;;2.58;0.90;;;;;;;14.10;66.46;95676.28;4896241;28;20146;-85
2023/10/31 00:58:45;;;;;;;2.05;0.70;;;;;;;13.83;68.48;95678.03;4867222;28;20108;-81
2023/10/31 01:01:10;;;;;;;2.67;0.75;;;;;;;14.03;66.92;95677.50;4897432;28;20190;-85
2023/10/31 01:03:36;;;;;;;0.75;0.60;;;;;;;14.07;67.21;95679.50;4890882;28;20276;-85
2023/10/31 01:06:01;;;;;;;0.80;0.50;;;;;;;14.03;66.77;95676.72;4887907;28;20197;-82
2023/10/31 01:08:27;;;;;;;3.55;0.75;;;;;;;14.08;66.72;95688.91;4892051;28;20163;-84
2023/10/31 01:10:52;;;;;;;0.82;0.68;;;;;;;13.86;66.76;95672.97;4894133;28;20644;-83
2023/10/31 01:13:18;;;;;;;1.80;0.70;;;;;;;13.96;67.28;95671.91;4900219;28;20620;-83
2023/10/31 01:15:44;;;;;;;1.67;0.93;;;;;;;14.05;66.63;95682.41;4898459;28;20221;-83
2023/10/31 01:18:09;;;;;;;1.75;0.60;;;;;;;14.10;66.64;95669.19;4904706;28;20285;-83
2023/10/31 01:20:35;;;;;;;2.03;0.55;;;;;;;14.12;66.05;95661.03;4883109;28;20651;-83
2023/10/31 01:23:03;;;;;;;1.15;0.65;;;;;;;14.15;66.63;95673.53;4907975;28;20183;-84
2023/10/31 01:25:28;;;;;;;0.95;0.80;;;;;;;13.99;66.91;95671.31;4906242;28;20215;-80
2023/10/31 01:27:54;;;;;;;0.98;0.88;;;;;;;14.10;66.72;95671.03;4885778;28;20148;-84
2023/10/31 01:30:19;;;;;;;1.73;0.70;;;;;;;14.08;67.04;95673.19;4872327;28;20676;-85
2023/10/31 01:32:44;;;;;;;0.95;0.80;;;;;;;14.05;67.14;95662.28;4897544;28;20277;-84
2023/10/31 01:35:10;;;;;;;2.25;0.60;;;;;;;14.07;67.22;95671.66;4871517;28;20181;-82
2023/10/31 01:37:35;;;;;;;1.20;0.70;;;;;;;14.05;67.29;95659.66;4902775;28;20454;-82
2023/10/31 01:40:01;;;;;;;1.00;0.80;;;;;;;13.93;67.26;95669.94;4888924;28;21016;-83
2023/10/31 01:42:26;;;;;;;0.70;0.65;;;;;;;14.14;67.02;95670.16;4887868;28;20309;-84
2023/10/31 01:44:51;;;;;;;1.45;0.70;;;;;;;14.18;66.88;95684.16;4904775;28;20241;-84
2023/10/31 01:47:17;;;;;;;1.70;0.80;;;;;;;14.12;66.79;95680.16;4866661;28;20271;-84
2023/10/31 01:49:42;;;;;;;1.45;0.75;;;;;;;14.00;66.49;95666.84;4897252;28;20615;-83
2023/10/31 01:52:08;;;;;;;2.03;0.93;;;;;;;14.19;66.76;95683.09;4880776;28;20382;-84
2023/10/31 01:54:34;;;;;;;1.38;0.88;;;;;;;14.03;67.26;95682.75;4883038;28;20175;-83
2023/10/31 01:57:00;;;;;;;2.00;1.10;;;;;;;14.08;67.22;95691.53;4891394;28;20691;-84
2023/10/31 01:59:26;;;;;;;0.90;0.88;;;;;;;14.01;66.95;95679.63;4873876;28;20250;-84
2023/10/31 02:01:56;;;;;;;1.40;1.10;;;;;;;14.07;66.75;95682.91;4902882;28;20307;-82
2023/10/31 02:04:21;;;;;;;1.17;1.08;;;;;;;14.26;66.53;95690.50;4877508;28;20745;-84
2023/10/31 02:06:46;;;;;;;2.45;1.10;;;;;;;14.11;66.41;95680.44;4877690;28;20201;-84
2023/10/31 02:09:12;;;;;;;1.40;1.25;;;;;;;14.17;66.31;95692.31;4893189;28;20176;-84
2023/10/31 02:11:37;;;;;;;6.38;1.98;;;;;;;14.20;66.72;95689.84;4869886;28;20872;-85
2023/10/31 02:14:03;;;;;;;2.83;1.40;;;;;;;14.16;66.08;95693.41;4889646;28;20237;-83
2023/10/31 02:16:28;;;;;;;2.15;1.63;;;;;;;14.20;66.48;95691.72;4907706;28;20295;-84
2023/10/31 02:18:54;;;;;;;2.28;1.52;;;;;;;13.97;66.94;95686.56;4892217;28;20399;-83
2023/10/31 02:21:20;;;;;;;4.18;1.60;;;;;;;14.02;67.02;95696.88;4876244;28;20944;-83
2023/10/31 02:24:02;;;;;;;1.67;1.50;;;;;;;14.19;66.76;95700.66;4874669;28;20244;-84
2023/10/31 02:26:32;;;;;;;4.63;1.55;;;;;;;13.78;68.03;95686.03;4903669;28;20252;-84
2023/10/31 02:28:58;;;;;;;2.47;1.05;;;;;;;13.87;67.41;95684.22;4884800;28;20682;-81
2023/10/31 02:31:23;;;;;;;1.48;1.17;;;;;;;13.85;67.45;95679.28;4875459;28;20343;-83
2023/10/31 02:33:49;;;;;;;1.27;1.05;;;;;;;13.84;66.91;95692.66;4895306;28;20201;-82
2023/10/31 02:36:14;;;;;;;3.25;1.17;;;;;;;13.73;67.27;95691.38;4901398;28;20620;-83
2023/10/31 02:38:39;;;;;;;2.65;1.20;;;;;;;13.93;66.80;95696.09;4885428;28;20206;-83
2023/10/31 02:41:05;;;;;;;1.25;1.10;;;;;;;13.75;66.76;95678.78;4902793;28;20280;-82
2023/10/31 02:43:30;;;;;;;3.42;1.52;;;;;;;13.94;66.69;95704.72;4876548;28;20697;-81
2023/10/31 02:45:56;;;;;;;2.25;1.33;;;;;;;13.97;66.62;95712.72;4885167;28;20297;-80
2023/10/31 02:48:21;;;;;;;3.80;1.10;;;;;;;13.72;67.50;95698.44;4886337;28;20219;-81
2023/10/31 02:50:46;;;;;;;1.85;1.25;;;;;;;13.86;66.65;95703.59;4883198;28;20253;-81
2023/10/31 02:53:12;;;;;;;1.67;1.08;;;;;;;13.81;66.08;95711.56;4874661;28;20640;-81
2023/10/31 02:55:37;;;;;;;0.95;0.80;;;;;;;13.59;66.97;95712.38;4888006;28;20284;-81
2023/10/31 02:58:03;;;;;;;3.65;0.90;;;;;;;13.82;66.43;95729.59;4892081;28;20707;-82
2023/10/31 03:00:28;;;;;;;1.33;1.20;;;;;;;13.79;66.64;95718.94;4898629;28;20268;-81
2023/10/31 03:02:54;;;;;;;1.08;0.85;;;;;;;13.84;66.54;95726.66;4898108;28;20202;-81
2023/10/31 03:05:19;;;;;;;2.58;1.05;;;;;;;13.76;66.21;95735.25;4875668;28;21042;-80
2023/10/31 03:07:45;;;;;;;1.27;1.00;;;;;;;13.87;66.28;95731.31;4892063;28;20167;-81
2023/10/31 03:10:10;;;;;;;1.58;1.00;;;;;;;13.67;66.40;95707.22;4879348;28;20210;-82
2023/10/31 03:12:36;;;;;;;0.90;0.80;;;;;;;13.88;66.38;95732.84;4903481;28;20301;-82
2023/10/31 03:15:03;;;;;;;1.40;0.90;;;;;;;13.77;66.03;95716.63;4866560;28;20580;-80
2023/10/31 03:17:29;;;;;;;1.58;0.77;;;;;;;13.88;66.41;95737.31;4882927;28;20264;-81
2023/10/31 03:19:55;;;;;;;1.30;1.08;;;;;;;13.76;66.68;95745.69;4882408;28;20236;-83
2023/10/31 03:22:20;;;;;;;0.90;0.80;;;;;;;13.83;66.58;95746.84;4893370;28;20202;-82
2023/10/31 03:24:45;;;;;;;0.93;0.70;;;;;;;13.92;65.95;95733.03;4894115;28;20264;-82
2023/10/31 03:27:11;;;;;;;0.98;0.88;;;;;;;13.81;66.74;95730.66;4903290;28;20314;-82
2023/10/31 03:29:36;;;;;;;1.35;1.00;;;;;;;13.77;66.39;95732.31;4876356;28;20192;-82
2023/10/31 03:32:01;;;;;;;0.90;0.75;;;;;;;13.83;65.80;95736.38;4904109;28;20181;-82
2023/10/31 03:34:27;;;;;;;2.30;1.10;;;;;;;13.74;66.35;95737.38;4898720;28;20280;-82
2023/10/31 03:36:53;;;;;;;1.42;0.80;;;;;;;13.89;65.27;95747.47;4893178;28;20280;-81
2023/10/31 03:39:18;;;;;;;1.83;0.90;;;;;;;13.81;65.69;95732.50;4904503;28;20205;-82
2023/10/31 03:41:43;;;;;;;1.33;0.80;;;;;;;13.59;67.03;95757.63;4891313;28;20236;-84
2023/10/31 03:44:09;;;;;;;2.20;1.00;;;;;;;13.74;67.01;95755.69;4883215;28;20197;-82
2023/10/31 03:46:34;;;;;;;2.00;1.00;;;;;;;13.67;66.36;95759.53;4867015;28;20266;-82
2023/10/31 03:48:59;;;;;;;2.20;1.35;;;;;;;13.84;66.34;95768.53;4894994;28;20148;-83
2023/10/31 03:51:25;;;;;;;1.95;1.00;;;;;;;13.74;66.28;95760.94;4884373;28;20555;-83
2023/10/31 03:53:50;;;;;;;0.98;0.70;;;;;;;13.81;66.17;95758.66;4885640;28;20307;-83
2023/10/31 03:56:16;;;;;;;1.15;0.80;;;;;;;13.68;67.01;95768.13;4862953;28;20302;-83
2023/10/31 03:58:42;;;;;;;1.55;0.80;;;;;;;13.63;66.10;95763.78;4898024;28;20303;-83
2023/10/31 04:01:08;;;;;;;1.88;0.85;;;;;;;13.85;65.87;95785.78;4892711;28;20245;-83
2023/10/31 04:03:33;;;;;;;1.73;0.80;;;;;;;13.75;65.75;95786.03;4903852;28;20292;-82
2023/10/31 04:05:58;;;;;;;1.77;0.70;;;;;;;13.83;65.73;95795.78;4893346;28;20272;-83
2023/10/31 04:08:24;;;;;;;1.63;0.90;;;;;;;13.73;66.23;95798.63;4874450;28;20209;-82
2023/10/31 04:10:49;;;;;;;1.95;0.90;;;;;;;13.64;66.70;95801.16;4902889;28;20521;-82
2023/10/31 04:13:14;;;;;;;2.47;0.88;;;;;;;13.67;66.63;95798.75;4891161;28;20248;-83
2023/10/31 04:15:40;;;;;;;2.30;0.90;;;;;;;13.64;66.06;95801.16;4888388;28;20270;-83
2023/10/31 04:18:05;;;;;;;1.20;1.02;;;;;;;13.71;66.63;95806.78;4883323;28;20279;-82
2023/10/31 04:20:31;;;;;;;1.95;0.80;;;;;;;13.70;66.27;95809.69;4883415;28;20829;-84
2023/10/31 04:22:56;;;;;;;1.63;0.60;;;;;;;13.59;66.54;95803.91;4893566;28;20278;-83
2023/10/31 04:25:21;;;;;;;2.25;0.70;;;;;;;13.60;66.29;95803.59;4906458;28;20684;-82
2023/10/31 04:27:47;;;;;;;0.75;0.75;;;;;;;13.74;66.34;95800.94;4882664;28;20282;-83
2023/10/31 04:30:12;;;;;;;0.70;0.70;;;;;;;13.76;65.77;95808.47;4899026;28;20108;-82
2023/10/31 04:32:37;;;;;;;2.10;1.00;;;;;;;13.78;65.64;95807.13;4890421;28;20810;-83
2023/10/31 04:35:03;;;;;;;1.52;0.77;;;;;;;13.77;65.71;95810.03;4883556;28;20224;-82
2023/10/31 04:37:28;;;;;;;0.70;0.70;;;;;;;13.78;66.06;95808.97;4898727;28;20521;-83
2023/10/31 04:39:54;;;;;;;1.33;0.70;;;;;;;13.80;65.84;95814.69;4894625;28;20237;-82
2023/10/31 04:42:20;;;;;;;1.45;1.10;;;;;;;13.82;65.82;95807.31;4897943;28;20372;-83
2023/10/31 04:44:45;;;;;;;4.90;1.13;;;;;;;13.70;66.08;95809.69;4888468;28;20171;-82
2023/10/31 04:47:11;;;;;;;0.90;0.90;;;;;;;13.58;66.76;95791.91;4903368;28;20190;-83
2023/10/31 04:49:36;;;;;;;1.92;1.05;;;;;;;13.64;66.15;95793.31;4884841;28;20198;-82
2023/10/31 04:52:02;;;;;;;1.27;0.70;;;;;;;13.71;66.02;95800.75;4900889;28;20158;-82
2023/10/31 04:54:27;;;;;;;1.75;0.85;;;;;;;13.69;66.72;95803.66;4904474;28;20280;-82
2023/10/31 04:56:52;;;;;;;1.30;0.98;;;;;;;13.80;66.24;95810.22;4886451;28;20217;-82
2023/10/31 04:59:18;;;;;;;1.25;1.13;;;;;;;13.72;66.36;95818.78;4884395;28;20552;-82
2023/10/31 05:01:49;;;;;;;2.95;1.00;;;;;;;13.86;66.14;95816.88;4887158;28;20250;-82
2023/10/31 05:04:14;;;;;;;1.10;0.93;;;;;;;13.67;66.38;95821.50;4872431;28;20258;-82
2023/10/31 05:06:40;;;;;;;1.77;1.08;;;;;;;13.77;65.89;95817.88;4883213;28;20313;-82
2023/10/31 05:09:05;;;;;;;2.17;1.20;;;;;;;13.72;66.36;95825.84;4898015;28;20194;-81
2023/10/31 05:11:31;;;;;;;1.63;1.27;;;;;;;13.75;65.98;95848.81;4861086;28;20277;-82
2023/10/31 05:13:56;;;;;;;1.00;0.90;;;;;;;13.71;66.15;95845.22;4904709;28;20733;-82
2023/10/31 05:16:21;;;;;;;1.52;1.00;;;;;;;13.69;65.62;95845.50;4896180;28;20081;-82
2023/10/31 05:18:46;;;;;;;2.67;1.02;;;;;;;13.53;66.73;95842.47;4890753;28;20204;-84
2023/10/31 05:21:12;;;;;;;2.17;1.25;;;;;;;13.66;66.53;95846.13;4876607;28;20225;-82
2023/10/31 05:23:37;;;;;;;1.33;1.00;;;;;;;13.71;66.30;95843.41;4883121;28;20312;-82
2023/10/31 05:26:05;;;;;;;1.73;1.30;;;;;;;13.79;65.62;95844.50;4885393;28;20395;-82
2023/10/31 05:28:30;;;;;;;1.75;1.10;;;;;;;13.57;66.21;95834.81;4874711;28;20190;-82
2023/10/31 05:30:56;;;;;;;2.28;0.93;;;;;;;13.72;66.27;95846.78;4893693;28;20209;-82
2023/10/31 05:33:23;;;;;;;1.95;1.38;;;;;;;13.71;66.17;95842.59;4899250;28;20174;-81
2023/10/31 05:35:48;;;;;;;3.47;0.95;;;;;;;13.63;66.50;95852.72;4870517;28;20315;-83
2023/10/31 05:38:13;;;;;;;1.67;0.80;;;;;;;13.67;66.15;95853.69;4882664;28;20296;-82
2023/10/31 05:40:39;;;;;;;1.52;1.00;;;;;;;13.76;65.59;95858.19;4905162;28;20230;-82
2023/10/31 05:43:04;;;;;;;2.08;0.82;;;;;;;13.62;65.96;95851.19;4896180;28;20307;-82
2023/10/31 05:45:30;;;;;;;2.45;1.65;;;;;;;13.61;65.72;95859.31;4875324;28;20194;-81
2023/10/31 05:47:55;;;;;;;0.88;0.88;;;;;;;13.59;66.30;95861.44;4881158;28;20280;-82
2023/10/31 05:50:21;;;;;;;2.17;1.30;;;;;;;13.67;65.92;95874.59;4896512;28;20295;-82
2023/10/31 05:52:46;;;;;;;2.90;0.90;;;;;;;13.67;66.02;95877.22;4890045;28;20289;-82
2023/10/31 05:55:12;;;;;;;2.17;1.10;;;;;;;13.75;65.43;95882.81;4884512;28;20210;-81
2023/10/31 05:57:37;;;;;;;1.73;1.17;;;;;;;13.69;65.75;95889.97;4881654;28;20208;-83
2023/10/31 06:00:03;;;;;;;3.35;1.25;;;;;;;13.67;65.40;95890.31;4874103;28;20265;-81
2023/10/31 06:02:31;;;;;;;1.45;1.10;;;;;;;13.70;65.55;95898.63;4890779;28;20202;-81
2023/10/31 06:04:56;;;;;;;1.30;1.15;;;;;;;13.62;65.72;95902.69;4866216;28;20715;-82
2023/10/31 06:07:21;;;;;;;1.20;1.00;;;;;;;13.57;66.21;95900.19;4876560;28;20228;-81
2023/10/31 06:09:47;;;;;;;2.63;1.00;;;;;;;13.59;66.59;95911.91;4890685;28;20201;-82
2023/10/31 06:12:12;;;;;;;2.53;1.35;;;;;;;13.47;66.57;95914.28;4882940;28;20632;-82
2023/10/31 06:14:37;;;;;;;3.95;1.50;;;;;;;13.53;66.36;95918.31;4881206;28;20340;-82
2023/10/31 06:17:04;;;;;;;2.53;0.98;;;;;;;13.56;66.97;95919.59;4899504;28;20091;-82
2023/10/31 06:19:29;;;;;;;1.70;1.20;;;;;;;13.62;66.25;95927.03;4887920;28;20677;-81
2023/10/31 06:21:54;;;;;;;5.10;1.80;;;;;;;13.63;66.23;95933.78;4901306;28;20284;-83
2023/10/31 06:24:20;;;;;;;5.53;1.50;;;;;;;13.54;66.70;95940.00;4881686;28;20252;-81
2023/10/31 06:26:45;;;;;;;2.08;1.10;;;;;;;13.53;66.81;95941.09;4871004;28;20295;-81
2023/10/31 06:29:11;;;;;;;3.10;1.15;;;;;;;13.53;66.78;95954.16;4893356;28;20305;-81
2023/10/31 06:31:36;;;;;;;2.70;1.30;;;;;;;13.55;66.01;95942.31;4876252;28;20250;-82
2023/10/31 06:34:01;;;;;;;3.78;1.85;;;;;;;13.55;66.05;95942.31;4890369;28;20162;-82
2023/10/31 06:36:27;;;;;;;2.80;1.10;;;;;;;13.47;66.66;95948.28;4901245;28;20670;-82
2023/10/31 06:38:52;;;;;;;2.47;1.40;;;;;;;13.40;66.57;95950.47;4889568;28;20201;-81
2023/10/31 06:41:18;;;;;;;2.58;1.13;;;;;;;13.53;66.29;95962.78;4869090;28;20717;-82
2023/10/31 06:43:43;;;;;;;2.25;1.10;;;;;;;13.55;66.04;95962.47;4884473;28;20708;-81
2023/10/31 06:46:09;;;;;;;1.55;1.35;;;;;;;13.49;64.80;95974.91;4888141;28;20210;-83
2023/10/31 06:48:34;;;;;;;1.48;1.30;;;;;;;13.56;65.15;95979.72;4873712;28;20695;-82
2023/10/31 06:51:00;;;;;;;1.30;1.00;;;;;;;13.50;65.26;95979.03;4899021;28;20210;-81
2023/10/31 06:53:25;;;;;;;4.75;1.38;;;;;;;13.57;65.30;95982.06;4888656;28;20676;-81
2023/10/31 06:55:50;;;;;;;1.58;1.08;;;;;;;13.45;64.84;95981.75;4876616;28;20280;-81
2023/10/31 06:58:15;;;;;;;2.00;1.05;;;;;;;13.58;65.13;95988.06;4892658;28;20201;-82
2023/10/31 07:00:41;;;;;;;1.92;0.82;;;;;;;13.58;65.48;95996.66;4888715;28;20304;-82
2023/10/31 07:03:09;;;;;;;1.00;0.90;;;;;;;13.48;65.71;95996.88;4869204;28;20339;-82
2023/10/31 07:05:37;;;;;;;2.95;0.98;;;;;;;13.61;65.52;96011.00;4897342;28;20368;-80
2023/10/31 07:08:03;;;;;;;2.03;1.08;;;;;;;13.59;65.63;96002.66;4874278;28;20249;-81
2023/10/31 07:10:29;;;;;;;2.85;1.08;;;;;;;13.47;65.73;96000.56;4869329;28;20354;-81
2023/10/31 07:12:54;;;;;;;3.42;1.02;;;;;;;13.48;65.45;96009.94;4879827;28;20253;-81
2023/10/31 07:15:20;;;;;;;2.80;0.93;;;;;;;13.57;65.65;96010.81;4897746;28;20215;-81
2023/10/31 07:17:46;;;;;;;2.55;0.95;;;;;;;13.53;65.47;96007.22;4894683;28;20194;-82
2023/10/31 07:20:12;;;;;;;1.55;1.00;;;;;;;13.53;65.84;96025.53;4886533;28;20738;-80
2023/10/31 07:22:37;;;;;;;1.38;0.90;;;;;;;13.54;65.96;96021.06;4891533;28;20382;-80
2023/10/31 07:25:03;;;;;;;2.28;0.90;;;;;;;13.62;65.11;96023.81;4898240;28;20197;-80
2023/10/31 07:27:29;;;;;;;2.22;1.08;;;;;;;13.66;65.76;96027.38;4900409;28;20163;-80
2023/10/31 07:29:54;;;;;;;2.22;0.90;;;;;;;13.56;64.36;96019.72;4900519;28;20200;-80
2023/10/31 07:32:20;;;;;;;2.90;1.10;;;;;;;13.61;64.75;96029.31;4891757;28;20193;-80
2023/10/31 07:34:45;;;;;;;2.33;1.00;;;;;;;13.60;65.34;96031.13;4899115;28;20363;-80
2023/10/31 07:37:11;;;;;;;4.40;1.45;;;;;;;13.63;64.96;96030.56;4893783;28;20191;-81
2023/10/31 07:39:36;;;;;;;3.25;1.70;;;;;;;13.62;65.82;96028.25;4894738;28;20744;-80
2023/10/31 07:42:01;;;;;;;2.03;1.17;;;;;;;13.77;65.52;96045.47;4885052;28;20186;-81
2023/10/31 07:44:27;;;;;;;1.70;1.30;;;;;;;13.77;65.10;96042.88;4895899;28;20175;-80
2023/10/31 07:46:52;;;;;;;2.92;1.20;;;;;;;13.75;65.64;96039.78;4865384;28;20392;-80
2023/10/31 07:49:17;;;;;;;3.03;1.27;;;;;;;13.75;66.04;96039.78;4892183;28;20111;-80
2023/10/31 07:51:43;;;;;;;3.83;1.20;;;;;;;13.73;65.96;96039.28;4889941;28;20321;-80
2023/10/31 07:54:09;;;;;;;1.48;1.35;;;;;;;13.80;65.27;96040.44;4905821;28;20209;-80
2023/10/31 07:56:36;;;;;;;2.40;1.35;;;;;;;13.89;64.93;96050.97;4890112;28;20171;-81
2023/10/31 07:59:01;;;;;;;1.25;0.82;;;;;;;13.86;65.23;96051.56;4890086;28;20248;-81
2023/10/31 08:01:27;;;;;;;3.38;1.10;;;;;;;13.92;64.78;96049.63;4896053;28;20332;-80
2023/10/31 08:03:52;;;;;;;3.63;1.38;;;;;;;13.91;65.82;96045.47;4861262;28;20334;-81
2023/10/31 08:06:18;;;;;;;1.90;0.88;;;;;;;13.67;66.36;96049.84;4885333;28;20214;-79
2023/10/31 08:08:43;;;;;;;4.80;1.65;;;;;;;13.80;65.98;96044.91;4904733;28;20198;-80
2023/10/31 08:11:09;;;;;;;2.30;1.20;;;;;;;13.87;65.70;96055.75;4902076;28;20201;-81
2023/10/31 08:13:37;;;;;;;2.13;1.55;;;;;;;13.87;65.94;96047.88;4859435;28;20217;-80
2023/10/31 08:16:03;;;;;;;4.18;1.55;;;;;;;13.99;65.49;96063.84;4899034;28;20196;-80
2023/10/31 08:18:29;;;;;;;2.00;1.00;;;;;;;14.03;64.92;96072.69;4890273;28;20199;-80
2023/10/31 08:20:54;;;;;;;3.75;1.10;;;;;;;13.99;66.01;96069.09;4860926;28;20285;-80
2023/10/31 08:23:19;;;;;;;3.28;1.20;;;;;;;14.01;66.13;96064.34;4908772;28;20335;-80
2023/10/31 08:25:45;;;;;;;3.72;1.05;;;;;;;14.04;65.17;96068.22;4903498;28;20718;-80
2023/10/31 08:28:11;;;;;;;4.30;1.85;;;;;;;14.12;64.75;96079.81;4871623;28;20635;-80
2023/10/31 08:30:38;;;;;;;1.92;1.10;;;;;;;14.10;64.61;96076.75;4890674;28;20193;-80
2023/10/31 08:33:03;;;;;;;4.22;1.25;;;;;;;14.12;64.20;96083.25;4876999;28;20344;-80
2023/10/31 08:35:29;;;;;;;2.03;1.40;;;;;;;14.15;64.25;96076.63;4878296;28;20301;-80
2023/10/31 08:37:55;;;;;;;1.50;1.20;;;;;;;14.07;64.95;96072.09;4871769;28;20658;-80
2023/10/31 08:40:20;;;;;;;3.13;1.27;;;;;;;14.17;64.41;96079.72;4892919;28;20266;-81
2023/10/31 08:42:45;;;;;;;2.38;1.00;;;;;;;14.05;65.17;96073.16;4904204;28;20221;-80
2023/10/31 08:45:11;;;;;;;3.83;1.30;;;;;;;13.99;64.61;96068.31;4876524;28;20358;-80
2023/10/31 08:47:36;;;;;;;2.55;0.77;;;;;;;14.14;64.93;96064.63;4896024;28;20205;-80
2023/10/31 08:50:02;;;;;;;3.92;1.27;;;;;;;14.13;65.23;96063.06;4893276;28;20194;-80
2023/10/31 08:52:27;;;;;;;3.53;1.38;;;;;;;14.23;64.51;96068.09;4877260;28;20170;-80
2023/10/31 08:54:53;;;;;;;2.35;1.35;;;;;;;14.11;63.92;96059.97;4895220;28;20275;-81
2023/10/31 08:57:18;;;;;;;4.63;1.00;;;;;;;14.32;63.79;96071.53;4895594;28;20640;-80
2023/10/31 08:59:43;;;;;;;4.43;1.30;;;;;;;14.33;62.82;96070.50;4893009;28;20284;-80
2023/10/31 09:02:09;;;;;;;2.15;0.77;;;;;;;14.21;63.99;96051.91;4884638;28;20384;-81
2023/10/31 09:04:35;;;;;;;4.15;1.33;;;;;;;14.41;63.95;96084.72;4895785;28;20246;-80
2023/10/31 09:07:00;;;;;;;5.43;1.30;;;;;;;14.42;63.61;96087.03;4892803;28;20702;-80
2023/10/31 09:09:26;;;;;;;3.40;1.02;;;;;;;14.45;63.05;96084.91;4905186;28;20306;-81
2023/10/31 09:11:51;;;;;;;3.40;1.30;;;;;;;14.38;63.54;96093.19;4882902;28;20170;-80
2023/10/31 09:14:16;;;;;;;2.78;1.50;;;;;;;14.49;63.40;96097.09;4890701;28;20205;-80
2023/10/31 09:16:42;;;;;;;2.75;0.95;;;;;;;14.56;64.77;96104.56;4872337;28;20569;-79
2023/10/31 09:19:07;;;;;;;4.15;1.17;;;;;;;14.67;64.40;96103.31;4888728;28;20389;-81
2023/10/31 09:21:33;;;;;;;4.63;1.17;;;;;;;14.64;63.57;96111.75;4883445;28;20337;-80
2023/10/31 09:23:58;;;;;;;2.92;1.80;;;;;;;14.47;64.75;96114.19;4904927;28;20217;-80
2023/10/31 09:26:23;;;;;;;4.82;1.92;;;;;;;14.71;64.52;96109.50;4889092;28;20280;-80
2023/10/31 09:28:51;;;;;;;2.63;1.35;;;;;;;14.81;63.68;96112.97;4883805;28;20390;-80
2023/10/31 09:31:17;;;;;;;2.50;1.77;;;;;;;14.88;63.28;96113.31;4865062;28;20168;-80
2023/10/31 09:33:43;;;;;;;4.03;1.90;;;;;;;14.98;63.67;96119.09;4875077;28;20171;-80
2023/10/31 09:36:09;;;;;;;3.08;1.33;;;;;;;14.94;62.68;96107.66;4889091;28;20221;-80
2023/10/31 09:38:35;;;;;;;2.10;1.40;;;;;;;14.99;62.60;96114.63;4870868;28;20194;-81
2023/10/31 09:41:01;;;;;;;5.28;1.55;;;;;;;14.91;62.78;96110.13;4871019;28;20704;-80
2023/10/31 09:43:26;;;;;;;3.25;1.70;;;;;;;14.98;63.05;96120.94;4900113;28;20182;-80
2023/10/31 09:45:52;;;;;;;3.65;1.33;;;;;;;14.97;62.44;96127.25;4887719;28;20221;-80
2023/10/31 09:48:19;;;;;;;2.67;1.40;;;;;;;14.98;62.55;96110.47;4897704;28;20269;-80
2023/10/31 09:50:45;;;;;;;3.75;1.38;;;;;;;14.98;62.09;96111.22;4894971;28;20228;-81
2023/10/31 09:53:11;;;;;;;3.80;1.30;;;;;;;14.95;62.39;96122.31;4891290;28;20284;-81
2023/10/31 09:55:37;;;;;;;3.17;1.30;;;;;;;14.88;63.11;96121.19;4887050;28;20190;-81
2023/10/31 09:58:03;;;;;;;3.28;1.10;;;;;;;14.98;63.11;96115.69;4890924;28;20636;-80
2023/10/31 10:00:28;;;;;;;3.90;1.38;;;;;;;15.12;62.57;96126.88;4881865;28;20253;-79
2023/10/31 10:02:54;;;;;;;5.88;1.30;;;;;;;15.13;62.36;96127.66;4898293;28;20288;-80
2023/10/31 10:05:20;;;;;;;3.08;1.25;;;;;;;15.14;63.64;96119.50;4898515;28;20282;-81
2023/10/31 10:07:46;;;;;;;2.63;1.02;;;;;;;15.29;61.70;96123.59;4866385;28;20278;-80
2023/10/31 10:10:12;;;;;;;1.83;1.67;;;;;;;15.31;62.18;96136.41;4874100;28;20291;-80
2023/10/31 10:12:37;;;;;;;3.47;1.75;;;;;;;15.27;62.98;96132.84;4894567;28;20273;-81
2023/10/31 10:15:03;;;;;;;3.63;1.10;;;;;;;15.23;61.83;96134.50;4889670;28;20258;-81
2023/10/31 10:17:28;;;;;;;2.03;1.08;;;;;;;15.21;62.58;96131.41;4891773;28;20188;-80
2023/10/31 10:20:10;;;;;;;2.38;0.80;;;;;;;15.20;62.01;96128.03;4876906;28;20732;-82
2023/10/31 10:22:39;;;;;;;3.30;0.90;;;;;;;15.19;61.30;96130.94;4888572;28;20250;-80
2023/10/31 10:25:06;;;;;;;2.65;0.95;;;;;;;14.94;62.68;96143.56;4884758;28;20159;-80
2023/10/31 10:27:32;;;;;;;3.63;1.48;;;;;;;15.12;61.58;96142.63;4895532;28;20222;-80
2023/10/31 10:29:57;;;;;;;1.42;0.77;;;;;;;15.01;62.42;96145.78;4890207;28;20284;-79
2023/10/31 10:32:23;;;;;;;2.10;0.82;;;;;;;15.13;61.35;96153.88;4887864;28;20178;-80
2023/10/31 10:34:48;;;;;;;4.13;1.58;;;;;;;15.04;62.18;96145.19;4872403;28;20164;-81
2023/10/31 10:37:13;;;;;;;1.10;0.90;;;;;;;15.00;62.20;96142.38;4905403;28;20231;-80
2023/10/31 10:39:39;;;;;;;1.50;1.10;;;;;;;15.02;61.82;96142.84;4885825;28;20110;-81
2023/10/31 10:42:09;;;;;;;2.08;0.98;;;;;;;15.20;61.96;96150.84;4898854;28;20301;-80
2023/10/31 10:44:36;;;;;;;2.63;1.27;;;;;;;15.14;61.21;96143.09;4903234;28;20238;-81
2023/10/31 10:47:03;;;;;;;3.17;1.00;;;;;;;15.07;62.75;96147.22;4888232;28;20291;-82
2023/10/31 10:49:32;;;;;;;1.75;1.15;;;;;;;15.30;62.38;96145.34;4882514;28;20649;-81
2023/10/31 10:52:02;;;;;;;2.78;1.50;;;;;;;15.34;61.03;96148.94;4903319;28;20265;-81
2023/10/31 10:54:35;;;;;;;3.67;1.38;;;;;;;15.36;61.56;96128.41;4901695;28;20178;-80
2023/10/31 10:57:21;;;;;;;1.63;1.42;;;;;;;15.58;63.17;96129.47;4862831;28;20240;-80
2023/10/31 10:59:52;;;;;;;3.80;1.40;;;;;;;15.86;61.92;96130.81;4886539;28;20249;-80
2023/10/31 11:02:18;;;;;;;2.80;1.67;;;;;;;16.03;61.14;96132.72;4898290;28;20611;-80
2023/10/31 11:04:44;;;;;;;2.45;1.10;;;;;;;16.13;59.19;96134.31;4893242;28;20292;-81
2023/10/31 11:07:10;;;;;;;4.00;1.08;;;;;;;16.14;59.69;96120.09;4884341;28;20145;-80
2023/10/31 11:09:36;;;;;;;3.25;1.63;;;;;;;16.38;57.14;96132.03;4873338;28;20541;-80
2023/10/31 11:12:02;;;;;;;3.45;1.05;;;;;;;16.74;58.53;96130.97;4890117;28;20178;-81
2023/10/31 11:14:29;;;;;;;2.33;1.05;;;;;;;17.00;57.61;96129.16;4857392;28;20198;-80
2023/10/31 11:16:59;;;;;;;3.42;1.42;;;;;;;17.09;57.45;96131.75;4871134;28;20148;-80
2023/10/31 11:19:26;;;;;;;2.10;1.25;;;;;;;17.44;56.52;96144.06;4883197;28;20115;-81
2023/10/31 11:21:57;;;;;;;2.28;1.65;;;;;;;17.63;55.41;96146.34;4888586;28;20303;-81
2023/10/31 11:24:23;;;;;;;2.35;1.10;;;;;;;17.30;56.85;96142.41;4874033;28;20230;-81
2023/10/31 11:26:51;;;;;;;1.67;1.23;;;;;;;17.18;55.80;96140.41;4890486;28;20664;-80